createdAt,value
2022-08-30T00:01:05.353Z,4.13
2022-08-30T00:03:38.859Z,4.88
2022-08-30T00:06:06.693Z,3.80
2022-08-30T00:08:34.878Z,4.13
2022-08-30T00:11:03.207Z,4.60
2022-08-30T00:13:30.173Z,4.30
2022-08-30T00:15:57.510Z,4.78
2022-08-30T00:18:24.725Z,4.13
2022-08-30T00:20:52.423Z,4.15
2022-08-30T00:23:20.473Z,4.70
2022-08-30T00:25:48.499Z,4.53
2022-08-30T00:28:16.892Z,4.65
2022-08-30T00:30:44.358Z,4.00
2022-08-30T00:33:12.280Z,5.85
2022-08-30T00:35:40.029Z,4.85
2022-08-30T00:38:11.898Z,3.95
2022-08-30T00:40:40.211Z,4.70
2022-08-30T00:43:13.991Z,4.50
2022-08-30T00:45:41.363Z,4.68
2022-08-30T00:48:08.372Z,4.15
2022-08-30T00:50:43.159Z,4.55
2022-08-30T00:53:24.653Z,4.00
2022-08-30T00:55:52.641Z,4.27
2022-08-30T00:58:27.225Z,3.92
2022-08-30T01:00:56.793Z,5.03
2022-08-30T01:03:24.440Z,4.60
2022-08-30T01:05:51.765Z,5.40
2022-08-30T01:08:22.131Z,4.50
2022-08-30T01:10:51.535Z,4.40
2022-08-30T01:13:19.684Z,5.05
2022-08-30T01:15:50.587Z,4.63
2022-08-30T01:18:18.876Z,4.70
2022-08-30T01:21:24.297Z,3.87
2022-08-30T01:23:53.986Z,4.70
2022-08-30T01:26:21.797Z,4.97
2022-08-30T01:28:54.668Z,4.63
2022-08-30T01:31:22.653Z,5.25
2022-08-30T01:33:50.987Z,4.27
2022-08-30T01:36:20.070Z,4.55
2022-08-30T01:38:52.804Z,5.13
2022-08-30T01:41:21.288Z,5.32
2022-08-30T01:43:50.033Z,4.95
2022-08-30T01:46:19.088Z,5.50
2022-08-30T01:48:54.045Z,5.63
2022-08-30T01:51:23.993Z,5.75
2022-08-30T01:53:51.127Z,5.25
2022-08-30T01:56:18.712Z,5.93
2022-08-30T01:58:46.387Z,5.60
2022-08-30T02:01:15.865Z,5.30
2022-08-30T02:03:44.484Z,6.22
2022-08-30T02:06:14.769Z,5.90
2022-08-30T02:08:42.543Z,6.38
2022-08-30T02:11:10.700Z,5.67
2022-08-30T02:13:39.256Z,6.13
2022-08-30T02:16:08.858Z,5.70
2022-08-30T02:18:36.957Z,5.82
2022-08-30T02:21:04.132Z,6.18
2022-08-30T02:23:31.241Z,5.73
2022-08-30T02:25:58.724Z,5.80
2022-08-30T02:28:25.915Z,6.95
2022-08-30T02:30:53.276Z,5.88
2022-08-30T02:33:20.485Z,6.22
2022-08-30T02:35:47.381Z,5.27
2022-08-30T02:38:14.509Z,5.93
2022-08-30T02:40:41.584Z,6.18
2022-08-30T02:43:08.573Z,6.38
2022-08-30T02:45:35.570Z,5.43
2022-08-30T02:48:02.754Z,6.80
2022-08-30T02:50:30.264Z,6.05
2022-08-30T02:52:57.337Z,6.20
2022-08-30T02:55:24.367Z,6.28
2022-08-30T02:57:51.249Z,6.85
2022-08-30T03:00:20.892Z,6.13
2022-08-30T03:02:48.151Z,6.45
2022-08-30T03:05:16.559Z,6.82
2022-08-30T03:07:45.783Z,6.60
2022-08-30T03:10:14.095Z,7.38
2022-08-30T03:12:41.757Z,6.13
2022-08-30T03:15:11.103Z,7.18
2022-08-30T03:17:38.009Z,6.93
2022-08-30T03:20:06.062Z,6.20
2022-08-30T03:22:33.226Z,7.45
2022-08-30T03:25:01.632Z,7.47
2022-08-30T03:27:29.089Z,6.90
2022-08-30T03:29:56.506Z,7.78
2022-08-30T03:32:23.327Z,7.28
2022-08-30T03:34:50.699Z,7.75
2022-08-30T03:37:17.794Z,7.17
2022-08-30T03:39:45.679Z,7.50
2022-08-30T03:42:12.814Z,8.02
2022-08-30T03:44:39.929Z,7.68
2022-08-30T03:47:08.487Z,8.32
2022-08-30T03:49:35.926Z,7.77
2022-08-30T03:52:03.175Z,7.57
2022-08-30T03:54:30.187Z,7.95
2022-08-30T03:56:57.308Z,8.52
2022-08-30T03:59:24.993Z,8.55
2022-08-30T04:01:51.980Z,7.90
2022-08-30T04:04:21.110Z,8.70
2022-08-30T04:06:49.131Z,7.60
2022-08-30T04:09:16.177Z,8.68
2022-08-30T04:11:43.057Z,8.43
2022-08-30T04:14:10.552Z,7.90
2022-08-30T04:16:37.427Z,8.38
2022-08-30T04:19:04.419Z,9.00
2022-08-30T04:21:31.891Z,8.20
2022-08-30T04:23:58.976Z,9.77
2022-08-30T04:26:29.221Z,8.73
2022-08-30T04:28:56.717Z,8.80
2022-08-30T04:31:23.651Z,9.13
2022-08-30T04:33:50.682Z,8.52
2022-08-30T04:36:20.375Z,10.25
2022-08-30T04:38:47.410Z,8.83
2022-08-30T04:41:19.561Z,7.95
2022-08-30T04:43:49.533Z,9.02
2022-08-30T04:46:18.036Z,8.65
2022-08-30T04:48:46.266Z,9.32
2022-08-30T04:51:15.875Z,9.70
2022-08-30T04:53:43.568Z,9.10
2022-08-30T04:56:18.283Z,9.30
2022-08-30T04:58:46.528Z,9.52
2022-08-30T05:01:17.608Z,9.48
2022-08-30T05:03:48.270Z,10.27
2022-08-30T05:06:16.893Z,9.77
2022-08-30T05:08:45.889Z,9.50
2022-08-30T05:11:12.985Z,9.32
2022-08-30T05:13:39.779Z,9.70
2022-08-30T05:16:08.376Z,9.50
2022-08-30T05:18:36.902Z,9.75
2022-08-30T05:21:15.610Z,8.93
2022-08-30T05:23:43.401Z,9.10
2022-08-30T05:26:13.461Z,9.27
2022-08-30T05:28:40.389Z,9.03
2022-08-30T05:31:21.214Z,8.73
2022-08-30T05:33:49.500Z,8.60
2022-08-30T05:36:18.891Z,9.20
2022-08-30T05:38:46.287Z,7.57
2022-08-30T05:41:13.372Z,7.27
2022-08-30T05:43:40.672Z,7.28
2022-08-30T05:46:10.540Z,8.38
2022-08-30T05:48:38.383Z,7.78
2022-08-30T05:51:08.057Z,8.88
2022-08-30T05:53:35.469Z,7.97
2022-08-30T05:56:04.970Z,8.05
2022-08-30T05:58:32.437Z,8.10
2022-08-30T06:00:59.771Z,7.50
2022-08-30T06:03:27.399Z,8.63
2022-08-30T06:05:54.769Z,7.67
2022-08-30T06:08:22.685Z,7.65
2022-08-30T06:10:49.766Z,7.50
2022-08-30T06:13:16.668Z,7.35
2022-08-30T06:15:47.199Z,7.70
2022-08-30T06:18:14.631Z,6.47
2022-08-30T06:20:50.222Z,6.97
2022-08-30T06:23:18.062Z,8.15
2022-08-30T06:25:45.034Z,8.05
2022-08-30T06:28:12.697Z,8.57
2022-08-30T06:30:41.819Z,7.17
2022-08-30T06:33:10.218Z,7.63
2022-08-30T06:35:46.684Z,7.53
2022-08-30T06:38:19.120Z,7.10
2022-08-30T06:40:45.943Z,7.38
2022-08-30T06:43:12.727Z,6.80
2022-08-30T06:45:39.497Z,5.97
2022-08-30T06:48:06.355Z,7.35
2022-08-30T06:50:33.343Z,6.78
2022-08-30T06:53:05.724Z,5.50
2022-08-30T06:55:33.506Z,5.57
2022-08-30T06:58:01.500Z,5.47
2022-08-30T07:00:28.915Z,5.32
2022-08-30T07:02:55.824Z,5.55
2022-08-30T07:05:23.709Z,4.55
2022-08-30T07:07:53.336Z,4.40
2022-08-30T07:10:21.534Z,4.75
2022-08-30T07:12:49.413Z,4.30
2022-08-30T07:15:16.571Z,3.88
2022-08-30T07:18:02.272Z,4.55
2022-08-30T07:20:39.902Z,3.43
2022-08-30T07:23:08.795Z,4.05
2022-08-30T07:25:40.385Z,3.75
2022-08-30T07:28:08.996Z,3.63
2022-08-30T07:30:36.097Z,3.92
2022-08-30T07:33:03.775Z,3.60
2022-08-30T07:35:31.517Z,3.92
2022-08-30T07:37:58.739Z,3.55
2022-08-30T07:40:26.353Z,3.65
2022-08-30T07:42:53.602Z,3.42
2022-08-30T07:45:20.896Z,2.80
2022-08-30T07:47:47.750Z,3.40
2022-08-30T07:50:14.978Z,3.00
2022-08-30T07:52:41.780Z,3.00
2022-08-30T07:55:10.115Z,3.08
2022-08-30T07:57:37.079Z,2.90
2022-08-30T08:00:05.386Z,3.03
2022-08-30T08:02:40.844Z,3.08
2022-08-30T08:05:08.638Z,2.80
2022-08-30T08:07:35.942Z,3.50
2022-08-30T08:10:03.290Z,2.93
2022-08-30T08:12:30.221Z,2.92
2022-08-30T08:14:57.013Z,2.70
2022-08-30T08:17:23.816Z,2.53
2022-08-30T08:19:50.580Z,2.55
2022-08-30T08:22:21.535Z,2.43
2022-08-30T08:24:49.588Z,2.72
2022-08-30T08:27:16.691Z,2.53
2022-08-30T08:29:43.978Z,2.75
2022-08-30T08:32:10.907Z,2.97
2022-08-30T08:34:37.681Z,1.97
2022-08-30T08:37:04.801Z,1.88
2022-08-30T08:39:31.643Z,2.60
2022-08-30T08:42:15.962Z,2.13
2022-08-30T08:44:58.344Z,2.05
2022-08-30T08:47:28.086Z,2.20
2022-08-30T08:49:59.746Z,1.70
2022-08-30T08:53:13.350Z,2.10
2022-08-30T08:55:50.840Z,2.20
2022-08-30T08:58:32.975Z,2.38
2022-08-30T09:01:00.199Z,1.90
2022-08-30T09:03:29.480Z,1.88
2022-08-30T09:05:57.450Z,1.85
2022-08-30T09:08:24.689Z,2.00
2022-08-30T09:11:04.150Z,2.15
2022-08-30T09:13:31.227Z,2.17
2022-08-30T09:16:00.025Z,2.17
2022-08-30T09:18:51.365Z,2.10
2022-08-30T09:21:27.610Z,2.20
2022-08-30T09:24:01.658Z,2.35
2022-08-30T09:26:36.175Z,2.40
2022-08-30T09:29:05.148Z,2.33
2022-08-30T09:31:46.535Z,2.22
2022-08-30T09:34:19.159Z,1.92
2022-08-30T09:36:52.286Z,2.25
2022-08-30T09:39:29.561Z,2.40
2022-08-30T09:42:22.330Z,2.30
2022-08-30T09:44:49.605Z,2.20
2022-08-30T09:47:31.428Z,1.92
2022-08-30T09:50:18.601Z,2.08
2022-08-30T10:05:45.366Z,2.72
2022-08-30T10:08:25.865Z,2.93
2022-08-30T10:10:59.371Z,2.83
2022-08-30T10:13:46.523Z,2.65
2022-08-30T10:16:26.578Z,2.13
2022-08-30T10:19:29.579Z,2.38
2022-08-30T10:22:05.861Z,2.07
2022-08-30T10:24:48.070Z,2.70
2022-08-30T10:27:20.970Z,2.83
2022-08-30T10:29:53.660Z,2.35
2022-08-30T10:32:30.037Z,2.25
2022-08-30T10:35:07.918Z,2.37
2022-08-30T10:37:39.633Z,2.13
2022-08-30T10:40:39.617Z,2.05
2022-08-30T10:43:15.135Z,2.65
2022-08-30T10:45:45.596Z,2.80
2022-08-30T10:48:29.720Z,2.70
2022-08-30T10:51:03.895Z,2.72
2022-08-30T10:53:59.158Z,2.80
2022-08-30T10:56:29.643Z,2.15
2022-08-30T10:58:59.056Z,2.53
2022-08-30T11:01:38.803Z,2.27
2022-08-30T11:04:39.684Z,2.63
2022-08-30T11:07:24.605Z,2.70
2022-08-30T11:10:18.236Z,2.08
2022-08-30T11:13:10.968Z,2.60
2022-08-30T11:15:57.858Z,1.80
2022-08-30T11:18:27.093Z,2.25
2022-08-30T11:21:14.298Z,2.55
2022-08-30T11:23:41.826Z,2.75
2022-08-30T11:26:20.225Z,2.25
2022-08-30T11:28:48.321Z,2.60
2022-08-30T11:31:18.480Z,2.33
2022-08-30T11:33:46.586Z,2.83
2022-08-30T11:36:37.341Z,2.15
2022-08-30T11:39:34.065Z,2.08
2022-08-30T11:42:30.911Z,3.00
2022-08-30T11:45:26.788Z,2.70
2022-08-30T11:47:59.414Z,2.83
2022-08-30T11:50:51.298Z,3.40
2022-08-30T11:53:42.711Z,1.98
2022-08-30T11:56:28.503Z,2.07
2022-08-30T11:59:01.691Z,2.83
2022-08-30T12:01:54.969Z,2.22
2022-08-30T12:04:19.626Z,2.53
2022-08-30T12:06:54.241Z,2.00
2022-08-30T12:09:23.720Z,2.57
2022-08-30T12:11:58.495Z,2.05
2022-08-30T12:14:52.155Z,2.35
2022-08-30T12:17:46.705Z,1.95
2022-08-30T12:20:44.209Z,1.77
2022-08-30T12:23:29.332Z,1.90
2022-08-30T12:26:15.616Z,2.73
2022-08-30T12:28:43.506Z,1.88
2022-08-30T12:31:16.149Z,2.60
2022-08-30T12:33:46.733Z,1.42
2022-08-30T12:36:17.132Z,2.13
2022-08-30T12:38:45.194Z,2.10
2022-08-30T12:41:19.695Z,2.05
2022-08-30T12:43:52.254Z,2.30
2022-08-30T12:46:21.083Z,1.73
2022-08-30T12:48:48.824Z,2.22
2022-08-30T12:51:35.305Z,1.70
2022-08-30T12:54:15.832Z,2.00
2022-08-30T12:57:25.512Z,1.95
2022-08-30T12:59:59.572Z,2.03
2022-08-30T13:02:52.997Z,2.55
2022-08-30T13:05:40.264Z,1.73
2022-08-30T13:08:18.266Z,2.67
2022-08-30T13:11:11.061Z,2.45
2022-08-30T13:13:44.335Z,2.67
2022-08-30T13:16:20.829Z,2.10
2022-08-30T13:18:50.429Z,2.22
2022-08-30T13:21:28.228Z,1.73
2022-08-30T13:24:06.255Z,1.92
2022-08-30T13:26:36.526Z,3.00
2022-08-30T13:29:10.457Z,2.40
2022-08-30T13:31:38.073Z,3.15
2022-08-30T13:34:05.170Z,2.37
2022-08-30T13:36:35.587Z,2.53
2022-08-30T13:39:05.412Z,2.20
2022-08-30T13:41:34.346Z,2.75
2022-08-30T13:44:13.193Z,2.75
2022-08-30T13:46:44.043Z,2.78
2022-08-30T13:52:20.940Z,2.33
2022-08-30T13:54:53.261Z,2.75
2022-08-30T14:00:17.809Z,2.70
2022-08-30T14:02:54.023Z,2.47
2022-08-30T14:11:12.653Z,2.45
2022-08-30T14:16:31.446Z,3.05
2022-08-30T14:19:00.365Z,2.90
2022-08-30T14:21:27.929Z,3.35
2022-08-30T14:23:57.817Z,2.75
2022-08-30T14:26:37.105Z,2.70
2022-08-30T14:29:08.872Z,2.78
2022-08-30T14:31:37.318Z,2.50
2022-08-30T14:34:05.459Z,2.63
2022-08-30T14:36:35.299Z,2.97
2022-08-30T14:39:08.197Z,2.45
2022-08-30T14:41:43.467Z,3.10
2022-08-30T14:44:12.047Z,3.25
2022-08-30T14:46:38.899Z,2.50
2022-08-30T14:49:07.396Z,2.42
2022-08-30T14:51:37.018Z,2.60
2022-08-30T14:54:04.235Z,2.72
2022-08-30T14:56:31.382Z,3.40
2022-08-30T14:59:00.522Z,2.60
2022-08-30T15:01:28.762Z,2.63
2022-08-30T15:03:56.173Z,3.08
2022-08-30T15:06:23.371Z,3.05
2022-08-30T15:08:54.322Z,3.35
2022-08-30T15:11:23.100Z,2.92
2022-08-30T15:13:52.906Z,3.03
2022-08-30T15:16:23.330Z,2.53
2022-08-30T15:18:51.180Z,2.90
2022-08-30T15:21:33.528Z,2.90
2022-08-30T15:24:02.269Z,3.05
2022-08-30T15:26:29.680Z,2.80
2022-08-30T15:28:56.682Z,3.00
2022-08-30T15:31:34.072Z,2.90
2022-08-30T15:34:01.544Z,2.85
2022-08-30T15:36:29.896Z,3.70
2022-08-30T15:38:59.378Z,3.05
2022-08-30T15:41:28.376Z,3.03
2022-08-30T15:43:57.875Z,2.30
2022-08-30T15:46:31.981Z,3.38
2022-08-30T15:49:03.270Z,2.85
2022-08-30T15:51:33.700Z,2.50
2022-08-30T15:54:11.584Z,3.03
2022-08-30T15:56:39.092Z,2.00
2022-08-30T15:59:05.968Z,2.33
2022-08-30T16:01:34.630Z,2.42
2022-08-30T16:04:02.021Z,2.08
2022-08-30T16:06:31.843Z,2.60
2022-08-30T16:08:59.096Z,2.70
2022-08-30T16:11:26.496Z,2.13
2022-08-30T16:13:55.870Z,2.60
2022-08-30T16:16:23.927Z,2.30
2022-08-30T16:18:54.310Z,2.50
2022-08-30T16:21:25.182Z,2.73
2022-08-30T16:23:56.195Z,2.13
2022-08-30T16:26:25.009Z,2.10
2022-08-30T16:28:53.232Z,2.03
2022-08-30T16:31:22.241Z,2.30
2022-08-30T16:33:52.487Z,2.33
2022-08-30T16:36:20.572Z,2.17
2022-08-30T16:38:49.092Z,2.22
2022-08-30T16:41:21.417Z,2.60
2022-08-30T16:43:53.418Z,2.20
2022-08-30T16:46:23.329Z,2.22
2022-08-30T16:48:50.539Z,2.10
2022-08-30T16:51:24.506Z,2.13
2022-08-30T16:53:56.082Z,2.33
2022-08-30T16:56:25.125Z,3.03
2022-08-30T16:59:00.670Z,2.88
2022-08-30T17:01:29.581Z,2.03
2022-08-30T17:03:56.932Z,2.47
2022-08-30T17:06:24.077Z,2.10
2022-08-30T17:08:52.548Z,2.40
2022-08-30T17:11:23.357Z,3.08
2022-08-30T17:13:51.114Z,2.35
2022-08-30T17:16:22.357Z,2.43
2022-08-30T17:18:56.119Z,2.37
2022-08-30T17:21:27.364Z,2.67
2022-08-30T17:23:54.148Z,2.20
2022-08-30T17:26:25.465Z,2.63
2022-08-30T17:28:53.023Z,2.63
2022-08-30T17:31:19.863Z,3.00
2022-08-30T17:33:49.216Z,2.38
2022-08-30T17:36:16.866Z,2.60
2022-08-30T17:38:45.216Z,2.50
2022-08-30T17:41:13.618Z,2.22
2022-08-30T17:43:40.565Z,2.33
2022-08-30T17:46:10.513Z,2.33
2022-08-30T17:48:38.310Z,2.38
2022-08-30T17:51:06.377Z,3.38
2022-08-30T17:53:35.674Z,2.33
2022-08-30T17:56:08.747Z,2.13
2022-08-30T17:58:35.715Z,2.22
2022-08-30T18:01:14.184Z,2.55
2022-08-30T18:03:42.184Z,2.13
2022-08-30T18:06:13.663Z,2.50
2022-08-30T18:08:43.666Z,2.77
2022-08-30T18:11:10.973Z,2.65
2022-08-30T18:13:37.896Z,1.90
2022-08-30T18:16:04.977Z,2.53
2022-08-30T18:18:32.864Z,2.60
2022-08-30T18:21:02.527Z,2.33
2022-08-30T18:23:29.441Z,2.38
2022-08-30T18:26:00.395Z,2.28
2022-08-30T18:28:28.764Z,2.60
2022-08-30T18:30:59.554Z,2.97
2022-08-30T18:33:27.511Z,2.47
2022-08-30T18:35:56.508Z,2.40
2022-08-30T18:38:24.807Z,2.75
2022-08-30T18:40:57.616Z,2.15
2022-08-30T18:43:31.081Z,2.58
2022-08-30T18:46:03.641Z,2.43
2022-08-30T18:48:30.872Z,1.70
2022-08-30T18:50:58.026Z,2.13
2022-08-30T18:53:29.206Z,1.95
2022-08-30T18:55:57.746Z,2.50
2022-08-30T18:58:26.342Z,2.73
2022-08-30T19:00:58.916Z,2.30
2022-08-30T19:03:26.139Z,2.38
2022-08-30T19:06:06.131Z,2.60
2022-08-30T19:08:34.994Z,2.47
2022-08-30T19:11:05.089Z,2.20
2022-08-30T19:13:36.065Z,2.83
2022-08-30T19:16:05.427Z,2.22
2022-08-30T19:18:32.943Z,2.80
2022-08-30T19:21:00.085Z,2.53
2022-08-30T19:23:34.090Z,3.13
2022-08-30T19:26:01.516Z,2.55
2022-08-30T19:28:28.648Z,1.70
2022-08-30T19:30:56.005Z,2.83
2022-08-30T19:33:23.039Z,2.72
2022-08-30T19:35:51.329Z,3.50
2022-08-30T19:38:20.751Z,2.75
2022-08-30T19:40:52.464Z,2.63
2022-08-30T19:43:21.901Z,2.42
2022-08-30T19:45:56.611Z,3.00
2022-08-30T19:48:29.308Z,2.57
2022-08-30T19:51:00.291Z,2.55
2022-08-30T19:53:27.450Z,2.38
2022-08-30T19:55:55.097Z,2.70
2022-08-30T19:58:22.410Z,2.60
2022-08-30T20:00:54.315Z,2.80
2022-08-30T20:03:28.000Z,2.50
2022-08-30T20:05:54.955Z,2.17
2022-08-30T20:08:22.989Z,2.22
2022-08-30T20:10:50.835Z,2.42
2022-08-30T20:13:23.975Z,2.97
2022-08-30T20:15:56.389Z,3.05
2022-08-30T20:18:28.839Z,2.53
2022-08-30T20:20:55.841Z,2.55
2022-08-30T20:23:25.251Z,2.33
2022-08-30T20:25:55.545Z,2.53
2022-08-30T20:28:24.815Z,2.67
2022-08-30T20:30:54.865Z,2.83
2022-08-30T20:33:25.318Z,2.40
2022-08-30T20:35:52.428Z,2.80
2022-08-30T20:38:24.079Z,2.80
2022-08-30T20:40:56.693Z,3.08
2022-08-30T20:43:26.097Z,2.55
2022-08-30T20:45:59.150Z,2.90
2022-08-30T20:48:29.401Z,2.38
2022-08-30T20:51:02.081Z,3.00
2022-08-30T20:53:30.330Z,3.13
2022-08-30T20:55:57.716Z,2.70
2022-08-30T20:58:25.275Z,2.97
2022-08-30T21:00:56.341Z,3.15
2022-08-30T21:03:26.130Z,3.20
2022-08-30T21:06:01.522Z,3.22
2022-08-30T21:08:29.246Z,3.42
2022-08-30T21:10:57.124Z,3.10
2022-08-30T21:13:25.312Z,3.15
2022-08-30T21:16:03.288Z,2.50
2022-08-30T21:18:34.650Z,2.95
2022-08-30T21:21:23.473Z,3.45
2022-08-30T21:23:55.731Z,2.55
2022-08-30T21:26:23.650Z,2.78
2022-08-30T21:28:54.076Z,2.27
2022-08-30T21:31:24.565Z,3.45
2022-08-30T21:33:54.071Z,3.25
2022-08-30T21:36:42.122Z,3.05
2022-08-30T21:39:10.442Z,2.97
2022-08-30T21:41:38.790Z,2.90
2022-08-30T21:44:27.445Z,2.75
2022-08-30T21:46:56.006Z,3.17
2022-08-30T21:49:25.241Z,2.17
2022-08-30T21:51:55.979Z,2.75
2022-08-30T21:54:25.325Z,3.13
2022-08-30T21:57:05.396Z,3.53
2022-08-30T21:59:32.791Z,3.28
2022-08-30T22:02:00.234Z,3.33
2022-08-30T22:04:28.069Z,3.60
2022-08-30T22:06:56.021Z,3.03
2022-08-30T22:09:25.687Z,2.67
2022-08-30T22:11:54.411Z,2.70
2022-08-30T22:14:23.029Z,3.08
2022-08-30T22:16:51.240Z,3.00
2022-08-30T22:19:23.089Z,3.17
2022-08-30T22:21:51.894Z,2.13
2022-08-30T22:24:22.402Z,2.97
2022-08-30T22:26:50.062Z,3.03
2022-08-30T22:29:19.148Z,2.90
2022-08-30T22:31:46.731Z,2.93
2022-08-30T22:34:14.048Z,2.55
2022-08-30T22:36:41.205Z,2.55
2022-08-30T22:39:10.016Z,3.13
2022-08-30T22:41:39.247Z,2.50
2022-08-30T22:44:06.740Z,2.67
2022-08-30T22:46:34.958Z,3.15
2022-08-30T22:49:04.378Z,2.80
2022-08-30T22:51:31.594Z,2.42
2022-08-30T22:53:58.652Z,2.60
2022-08-30T22:56:26.969Z,2.90
2022-08-30T22:58:55.976Z,3.05
2022-08-30T23:01:25.251Z,2.90
2022-08-30T23:03:53.638Z,3.13
2022-08-30T23:06:22.361Z,3.03
2022-08-30T23:08:50.009Z,3.20
2022-08-30T23:11:17.295Z,3.05
2022-08-30T23:13:44.752Z,2.85
2022-08-30T23:16:14.453Z,3.05
2022-08-30T23:18:44.493Z,2.58
2022-08-30T23:21:22.013Z,3.20
2022-08-30T23:24:08.877Z,2.80
2022-08-30T23:26:55.754Z,2.45
2022-08-30T23:29:45.347Z,2.42
2022-08-30T23:32:32.189Z,2.90
2022-08-30T23:35:19.702Z,2.77
2022-08-30T23:38:06.085Z,2.35
2022-08-30T23:40:52.171Z,2.80
2022-08-30T23:43:37.856Z,2.80
2022-08-30T23:46:24.037Z,2.88
2022-08-30T23:49:10.591Z,2.40
2022-08-30T23:51:57.164Z,1.85
2022-08-30T23:54:44.211Z,2.45
2022-08-30T23:57:30.156Z,2.75
